Time;durP1;ratioP1;P1;durP2;ratioP2;P2;SDS_P1;SDS_P2;PMS_P1;PMS_P2;Temp;Humidity;BMP_temperature;BMP_pressure;BME280_temperature;BME280_humidity;BME280_pressure;Samples;Min_cycle;Max_cycle;Signal;HPM_P1;HPM_P2
2023/12/18 00:02:19;;;;;;;31.30;17.13;;;7.80;99.90;;;;;;5041983;28;20040;-81
2023/12/18 00:04:45;;;;;;;34.60;18.53;;;7.90;99.90;;;;;;5025014;28;20087;-81
2023/12/18 00:07:11;;;;;;;32.27;18.53;;;7.90;99.90;;;;;;5037119;28;20511;-81
2023/12/18 00:09:39;;;;;;;31.93;18.03;;;7.90;99.90;;;;;;5017162;28;20113;-81
2023/12/18 00:12:05;;;;;;;33.63;18.20;;;7.90;99.90;;;;;;5030485;28;20046;-81
2023/12/18 00:14:31;;;;;;;29.90;18.10;;;7.80;99.90;;;;;;5018143;28;20045;-81
2023/12/18 00:16:56;;;;;;;33.50;18.80;;;7.90;99.90;;;;;;5005908;28;20075;-81
2023/12/18 00:19:23;;;;;;;30.17;18.60;;;7.90;99.90;;;;;;5030514;28;20049;-80
2023/12/18 00:21:49;;;;;;;35.37;18.57;;;7.90;99.90;;;;;;5031079;28;20053;-81
2023/12/18 00:24:15;;;;;;;28.53;17.27;;;7.90;99.90;;;;;;5048038;28;20045;-80
2023/12/18 00:26:40;;;;;;;33.63;17.67;;;7.80;99.90;;;;;;5042758;28;20039;-80
2023/12/18 00:29:06;;;;;;;33.03;18.77;;;7.90;99.90;;;;;;5014692;28;20068;-81
2023/12/18 00:31:32;;;;;;;32.87;18.37;;;7.90;99.90;;;;;;5005396;28;20049;-81
2023/12/18 00:33:58;;;;;;;35.03;17.73;;;7.90;99.90;;;;;;5051427;28;20370;-81
2023/12/18 00:36:23;;;;;;;33.53;18.27;;;7.90;99.90;;;;;;5031689;28;20048;-80
2023/12/18 00:38:49;;;;;;;36.87;18.77;;;7.90;99.90;;;;;;5031954;28;20054;-81
2023/12/18 00:41:17;;;;;;;30.60;17.93;;;7.90;99.90;;;;;;5043327;28;20048;-81
2023/12/18 00:43:43;;;;;;;33.40;19.07;;;7.90;99.90;;;;;;5034675;28;20451;-82
2023/12/18 00:46:08;;;;;;;31.90;18.43;;;7.80;99.90;;;;;;5032939;28;20108;-81
2023/12/18 00:48:34;;;;;;;37.33;18.63;;;7.90;99.90;;;;;;5011267;28;20045;-81
2023/12/18 00:50:59;;;;;;;31.17;17.83;;;7.90;99.90;;;;;;5050488;28;20534;-81
2023/12/18 00:53:25;;;;;;;30.93;18.20;;;7.90;99.90;;;;;;5029776;28;20135;-81
2023/12/18 00:55:51;;;;;;;33.30;19.23;;;7.90;99.90;;;;;;5028014;28;20041;-81
2023/12/18 00:58:16;;;;;;;32.13;17.80;;;8.00;99.90;;;;;;5035929;28;20140;-80
2023/12/18 01:00:42;;;;;;;32.87;19.53;;;8.00;99.90;;;;;;5031326;28;20041;-81
2023/12/18 01:03:08;;;;;;;30.63;17.33;;;7.90;99.90;;;;;;5032663;28;20072;-81
2023/12/18 01:05:33;;;;;;;31.17;17.30;;;7.90;99.90;;;;;;5049450;28;20830;-81
2023/12/18 01:07:59;;;;;;;33.00;18.47;;;7.90;99.90;;;;;;5045940;28;20047;-82
2023/12/18 01:10:25;;;;;;;33.40;17.80;;;7.90;99.90;;;;;;5029525;28;20040;-81
2023/12/18 01:12:51;;;;;;;27.67;17.67;;;8.00;99.90;;;;;;5043550;28;20045;-81
2023/12/18 01:15:16;;;;;;;37.87;18.07;;;7.90;99.90;;;;;;5030950;28;20151;-82
2023/12/18 01:17:42;;;;;;;32.17;18.20;;;7.90;99.90;;;;;;5045424;28;20045;-81
2023/12/18 01:20:08;;;;;;;32.73;18.80;;;8.00;99.90;;;;;;5031175;28;20041;-81
2023/12/18 01:22:34;;;;;;;31.20;19.20;;;7.90;99.90;;;;;;5049368;28;20056;-81
2023/12/18 01:25:00;;;;;;;28.77;17.93;;;8.00;99.90;;;;;;5015524;28;20109;-81
2023/12/18 01:27:26;;;;;;;31.57;17.33;;;7.90;99.90;;;;;;5046412;28;20044;-80
2023/12/18 01:29:51;;;;;;;28.27;17.33;;;8.00;99.90;;;;;;5017356;28;20056;-80
2023/12/18 01:32:17;;;;;;;34.50;17.30;;;8.00;99.90;;;;;;5049228;28;20051;-81
2023/12/18 01:34:43;;;;;;;35.50;16.63;;;8.10;99.90;;;;;;5028257;28;20041;-80
2023/12/18 01:37:08;;;;;;;28.73;17.20;;;8.00;99.90;;;;;;5024829;28;20530;-81
2023/12/18 01:39:36;;;;;;;36.27;16.97;;;8.10;99.90;;;;;;5020352;28;20037;-80
2023/12/18 01:42:02;;;;;;;32.53;17.60;;;8.00;99.90;;;;;;5035670;28;20059;-81
2023/12/18 01:44:28;;;;;;;33.57;16.10;;;8.10;99.90;;;;;;5028737;28;20127;-81
2023/12/18 01:46:55;;;;;;;28.20;15.97;;;8.10;99.90;;;;;;5044797;28;20177;-80
2023/12/18 01:49:21;;;;;;;27.20;15.13;;;8.10;99.90;;;;;;5050587;28;20048;-81
2023/12/18 01:51:47;;;;;;;29.07;14.87;;;8.10;99.90;;;;;;5031241;28;20053;-81
2023/12/18 01:54:14;;;;;;;28.03;15.00;;;8.10;99.90;;;;;;5030980;28;20041;-80
2023/12/18 01:56:40;;;;;;;27.13;15.93;;;8.10;99.90;;;;;;5046912;28;20053;-81
2023/12/18 01:59:09;;;;;;;32.17;15.43;;;8.10;99.90;;;;;;5017835;28;20463;-80
2023/12/18 02:01:36;;;;;;;28.87;16.53;;;8.10;99.90;;;;;;5031024;28;20052;-80
2023/12/18 02:04:02;;;;;;;29.30;15.80;;;8.20;99.90;;;;;;5046551;28;20108;-80
2023/12/18 02:06:28;;;;;;;31.83;15.10;;;8.10;99.90;;;;;;5035975;28;20044;-81
2023/12/18 02:08:56;;;;;;;25.90;14.73;;;8.10;99.90;;;;;;5028349;28;20041;-80
2023/12/18 02:11:23;;;;;;;23.60;15.67;;;8.10;99.90;;;;;;5045795;28;20087;-81
2023/12/18 02:13:48;;;;;;;30.20;15.40;;;8.20;99.90;;;;;;5029329;28;20053;-80
2023/12/18 02:16:14;;;;;;;33.70;15.80;;;8.20;99.90;;;;;;5023707;28;20041;-80
2023/12/18 02:18:45;;;;;;;31.30;16.57;;;8.20;99.90;;;;;;5029453;28;20064;-80
2023/12/18 02:21:11;;;;;;;33.13;15.23;;;8.20;99.90;;;;;;5048005;28;20052;-80
2023/12/18 02:23:36;;;;;;;25.87;15.53;;;8.20;99.90;;;;;;5017600;28;20095;-81
2023/12/18 02:26:02;;;;;;;25.90;15.97;;;8.20;99.90;;;;;;5030235;28;20089;-81
2023/12/18 02:28:29;;;;;;;30.87;15.83;;;8.20;99.90;;;;;;5049049;28;20029;-77
2023/12/18 02:30:55;;;;;;;26.63;15.03;;;8.20;99.90;;;;;;5051451;28;20056;-83
2023/12/18 02:33:20;;;;;;;27.70;14.90;;;8.20;99.90;;;;;;5032976;28;20045;-82
2023/12/18 02:35:46;;;;;;;26.60;15.33;;;8.20;99.90;;;;;;5043034;28;20049;-82
2023/12/18 02:38:12;;;;;;;28.13;15.47;;;8.20;99.90;;;;;;5038112;28;20041;-82
2023/12/18 02:40:39;;;;;;;25.30;14.53;;;8.20;99.90;;;;;;5046082;28;20053;-81
2023/12/18 02:43:05;;;;;;;26.27;15.83;;;8.30;99.90;;;;;;5026874;28;20049;-82
2023/12/18 02:45:31;;;;;;;33.00;16.20;;;8.20;99.90;;;;;;5035684;28;20041;-82
2023/12/18 02:47:56;;;;;;;30.97;16.33;;;8.20;99.90;;;;;;5032412;28;20045;-81
2023/12/18 02:50:22;;;;;;;28.77;15.17;;;8.20;99.90;;;;;;5016763;28;20511;-82
2023/12/18 02:52:48;;;;;;;27.83;15.83;;;8.20;99.90;;;;;;5030743;28;20048;-80
2023/12/18 02:55:13;;;;;;;30.83;16.70;;;8.20;99.90;;;;;;5046932;28;20052;-81
2023/12/18 02:57:39;;;;;;;28.97;15.47;;;8.30;99.90;;;;;;5045811;28;20041;-81
2023/12/18 03:00:05;;;;;;;29.03;16.53;;;8.30;99.90;;;;;;5029794;28;20045;-82
2023/12/18 03:02:31;;;;;;;26.60;15.70;;;8.20;99.90;;;;;;5046358;28;20045;-81
2023/12/18 03:04:57;;;;;;;27.83;15.93;;;8.20;99.90;;;;;;5028993;28;20083;-81
2023/12/18 03:07:22;;;;;;;25.63;15.40;;;8.30;99.90;;;;;;5016498;28;20120;-81
2023/12/18 03:09:48;;;;;;;32.10;16.30;;;8.30;99.90;;;;;;5028629;28;20044;-81
2023/12/18 03:12:14;;;;;;;30.80;15.80;;;8.30;99.90;;;;;;5028205;28;20444;-80
2023/12/18 03:14:39;;;;;;;31.70;16.90;;;8.30;99.90;;;;;;5036728;28;20036;-80
2023/12/18 03:17:05;;;;;;;27.23;16.47;;;8.30;99.90;;;;;;5048041;28;20118;-81
2023/12/18 03:19:31;;;;;;;31.57;16.27;;;8.30;99.90;;;;;;5033252;28;20051;-81
2023/12/18 03:21:56;;;;;;;29.50;16.00;;;8.30;99.90;;;;;;5018195;28;20044;-81
2023/12/18 03:24:22;;;;;;;29.37;16.30;;;8.30;99.90;;;;;;5048226;28;20045;-80
2023/12/18 03:26:48;;;;;;;29.73;16.57;;;8.30;99.90;;;;;;5014129;28;20053;-81
2023/12/18 03:29:13;;;;;;;28.50;16.37;;;8.30;99.90;;;;;;5015564;28;20045;-81
2023/12/18 03:31:39;;;;;;;30.77;17.00;;;8.30;99.90;;;;;;5031084;28;20048;-81
2023/12/18 03:34:05;;;;;;;28.27;16.00;;;8.30;99.90;;;;;;5046794;28;20650;-82
2023/12/18 03:36:30;;;;;;;32.40;17.17;;;8.30;99.90;;;;;;5048619;28;20037;-81
2023/12/18 03:38:56;;;;;;;27.50;16.60;;;8.30;99.90;;;;;;5033975;28;20059;-82
2023/12/18 03:41:22;;;;;;;29.70;15.60;;;8.30;99.90;;;;;;5015778;28;20037;-81
2023/12/18 03:43:47;;;;;;;26.17;16.27;;;8.30;99.90;;;;;;5045558;28;20040;-81
2023/12/18 03:46:13;;;;;;;35.60;17.13;;;8.30;99.90;;;;;;5018925;28;20041;-82
2023/12/18 03:48:38;;;;;;;27.80;16.47;;;8.30;99.90;;;;;;5022809;28;20528;-80
2023/12/18 03:51:05;;;;;;;30.90;16.13;;;8.30;99.90;;;;;;5034161;28;20052;-81
2023/12/18 03:53:31;;;;;;;33.83;16.73;;;8.30;99.90;;;;;;5021781;28;20049;-81
2023/12/18 03:55:56;;;;;;;28.20;15.77;;;8.30;99.90;;;;;;5040989;28;20041;-81
2023/12/18 03:58:22;;;;;;;28.70;16.73;;;8.30;99.90;;;;;;5049431;28;20056;-82
2023/12/18 04:00:48;;;;;;;31.13;17.00;;;8.30;99.90;;;;;;5030554;28;20103;-80
2023/12/18 04:03:13;;;;;;;26.67;16.13;;;8.30;99.90;;;;;;5030528;28;20080;-81
2023/12/18 04:05:39;;;;;;;33.33;17.00;;;8.30;99.90;;;;;;5030661;28;20109;-81
2023/12/18 04:08:05;;;;;;;31.73;17.30;;;8.30;99.90;;;;;;5016325;28;20078;-81
2023/12/18 04:10:31;;;;;;;26.77;15.70;;;8.30;99.90;;;;;;5028103;28;20045;-82
2023/12/18 04:12:56;;;;;;;26.67;16.00;;;8.30;99.90;;;;;;5030151;28;20049;-81
2023/12/18 04:15:22;;;;;;;36.30;17.70;;;8.30;99.90;;;;;;5034685;28;20048;-81
2023/12/18 04:17:48;;;;;;;28.80;18.43;;;8.20;99.90;;;;;;5027578;28;20113;-82
2023/12/18 04:20:14;;;;;;;31.30;18.93;;;8.20;99.90;;;;;;5033724;28;20056;-82
2023/12/18 04:22:39;;;;;;;34.80;19.73;;;8.10;99.90;;;;;;5044506;28;20045;-82
2023/12/18 04:25:05;;;;;;;32.83;18.00;;;8.10;99.90;;;;;;5011474;28;20097;-81
2023/12/18 04:27:31;;;;;;;28.53;18.20;;;8.10;99.90;;;;;;5019198;28;20040;-82
2023/12/18 04:29:57;;;;;;;28.77;19.03;;;8.10;99.90;;;;;;5025302;28;20099;-82
2023/12/18 04:32:22;;;;;;;30.13;19.63;;;8.10;99.90;;;;;;5028237;28;20057;-82
2023/12/18 04:34:48;;;;;;;29.10;18.13;;;8.10;99.90;;;;;;5047964;28;20118;-80
2023/12/18 04:37:14;;;;;;;30.23;19.27;;;8.10;99.90;;;;;;5029605;28;20043;-81
2023/12/18 04:39:39;;;;;;;34.20;19.27;;;8.10;99.90;;;;;;5031830;28;20264;-80
2023/12/18 04:42:05;;;;;;;34.30;18.00;;;8.10;99.90;;;;;;5016665;28;20056;-81
2023/12/18 04:44:31;;;;;;;40.40;18.67;;;8.10;99.90;;;;;;5051129;28;20080;-81
2023/12/18 04:46:56;;;;;;;32.40;18.83;;;8.10;99.90;;;;;;5017982;28;20099;-82
2023/12/18 04:49:24;;;;;;;33.57;18.67;;;8.10;99.90;;;;;;5030345;28;20059;-80
2023/12/18 04:51:49;;;;;;;31.53;18.20;;;8.10;99.90;;;;;;5027240;28;20072;-81
2023/12/18 04:54:15;;;;;;;31.70;18.60;;;8.10;99.90;;;;;;5034416;28;20049;-80
2023/12/18 04:56:41;;;;;;;33.33;18.47;;;8.10;99.90;;;;;;5030494;28;20045;-81
2023/12/18 04:59:07;;;;;;;27.30;18.27;;;8.10;99.90;;;;;;5049775;28;20064;-81
2023/12/18 05:01:32;;;;;;;30.57;18.23;;;8.10;99.90;;;;;;5030246;28;20056;-81
2023/12/18 05:03:58;;;;;;;31.03;18.37;;;8.10;99.90;;;;;;5012784;28;20130;-81
2023/12/18 05:06:27;;;;;;;26.83;16.87;;;8.10;99.90;;;;;;5017624;28;20587;-80
2023/12/18 05:08:53;;;;;;;30.70;18.47;;;8.10;99.90;;;;;;5047809;28;20043;-81
2023/12/18 05:11:24;;;;;;;27.80;17.07;;;8.10;99.90;;;;;;5037838;28;20061;-81
2023/12/18 05:13:50;;;;;;;31.13;17.73;;;8.10;99.90;;;;;;5015296;28;20475;-82
2023/12/18 05:16:18;;;;;;;30.37;17.13;;;8.10;99.90;;;;;;5050000;28;20033;-81
2023/12/18 05:18:44;;;;;;;28.97;17.70;;;8.10;99.90;;;;;;5032747;28;20041;-81
2023/12/18 05:21:10;;;;;;;26.47;17.17;;;8.10;99.90;;;;;;5031745;28;20117;-82
2023/12/18 05:23:36;;;;;;;33.47;18.20;;;8.10;99.90;;;;;;5019983;28;20068;-82
2023/12/18 05:26:02;;;;;;;32.43;17.40;;;8.10;99.90;;;;;;5046936;28;20057;-81
2023/12/18 05:28:28;;;;;;;31.87;16.47;;;8.10;99.90;;;;;;5032231;28;20393;-81
2023/12/18 05:30:54;;;;;;;29.17;17.17;;;8.10;99.90;;;;;;5051331;28;20053;-81
2023/12/18 05:33:20;;;;;;;28.97;15.93;;;8.20;99.90;;;;;;5057324;28;20109;-80
2023/12/18 05:35:46;;;;;;;29.80;16.90;;;8.20;99.90;;;;;;5047098;28;20044;-81
2023/12/18 05:38:12;;;;;;;29.20;15.97;;;8.20;99.90;;;;;;5044526;28;20052;-82
2023/12/18 05:40:38;;;;;;;24.40;16.17;;;8.20;99.90;;;;;;5047612;28;20105;-81
2023/12/18 05:43:04;;;;;;;33.23;16.73;;;8.20;99.90;;;;;;5033874;28;20102;-81
2023/12/18 05:45:34;;;;;;;26.10;16.30;;;8.20;99.90;;;;;;5050040;28;20069;-81
2023/12/18 05:48:00;;;;;;;27.50;16.60;;;8.20;99.90;;;;;;5033630;28;20048;-82
2023/12/18 05:50:26;;;;;;;29.43;16.33;;;8.20;99.90;;;;;;5032576;28;20048;-81
2023/12/18 05:52:52;;;;;;;26.73;16.17;;;8.20;99.90;;;;;;5038972;28;20097;-81
2023/12/18 05:55:18;;;;;;;29.70;15.90;;;8.20;99.90;;;;;;5035193;28;20065;-81
2023/12/18 05:57:43;;;;;;;26.10;16.03;;;8.30;99.90;;;;;;5030562;28;20064;-81
2023/12/18 06:00:09;;;;;;;29.47;15.77;;;8.30;99.90;;;;;;5029113;28;20045;-81
2023/12/18 06:02:36;;;;;;;26.87;16.00;;;8.30;99.90;;;;;;5049573;28;20490;-82
2023/12/18 06:05:02;;;;;;;30.23;16.73;;;8.30;99.90;;;;;;5033291;28;20561;-81
2023/12/18 06:07:28;;;;;;;28.57;17.27;;;8.20;99.90;;;;;;5033131;28;20046;-80
2023/12/18 06:09:54;;;;;;;27.57;17.73;;;8.20;99.90;;;;;;5039083;28;20049;-81
2023/12/18 06:12:20;;;;;;;28.20;16.03;;;8.20;99.90;;;;;;5034515;28;20053;-82
2023/12/18 06:14:46;;;;;;;29.07;16.77;;;8.20;99.90;;;;;;5049476;28;20098;-81
2023/12/18 06:17:12;;;;;;;29.00;16.97;;;8.20;99.90;;;;;;5045139;28;20045;-85
2023/12/18 06:19:38;;;;;;;26.87;16.23;;;8.20;99.90;;;;;;5023634;28;20042;-80
2023/12/18 06:22:04;;;;;;;27.90;15.93;;;8.20;99.90;;;;;;5029812;28;20059;-80
2023/12/18 06:24:30;;;;;;;31.80;17.27;;;8.20;99.90;;;;;;5017473;28;20128;-79
2023/12/18 06:26:56;;;;;;;26.37;16.87;;;8.20;99.90;;;;;;5031525;28;20045;-80
2023/12/18 06:29:22;;;;;;;26.97;16.13;;;8.20;99.90;;;;;;5019844;28;20500;-79
2023/12/18 06:31:48;;;;;;;26.07;17.30;;;8.20;99.90;;;;;;5033732;28;20085;-79
2023/12/18 06:34:14;;;;;;;29.37;16.03;;;8.30;99.90;;;;;;5048292;28;20040;-79
2023/12/18 06:36:39;;;;;;;28.40;16.63;;;8.30;99.90;;;;;;5023668;28;21248;-79
2023/12/18 06:39:05;;;;;;;30.00;16.30;;;8.20;99.90;;;;;;5035926;28;20048;-83
2023/12/18 06:41:31;;;;;;;27.50;17.47;;;8.30;99.90;;;;;;5024645;28;20033;-80
2023/12/18 06:43:57;;;;;;;30.93;16.70;;;8.30;99.90;;;;;;5049872;28;20041;-80
2023/12/18 06:46:23;;;;;;;28.57;16.23;;;8.20;99.90;;;;;;5027428;28;20049;-82
2023/12/18 06:48:49;;;;;;;25.13;16.83;;;8.20;99.90;;;;;;5036751;28;20056;-84
2023/12/18 06:51:16;;;;;;;26.70;16.20;;;8.30;99.90;;;;;;5046110;28;20029;-80
2023/12/18 06:53:41;;;;;;;27.10;17.30;;;8.30;99.90;;;;;;5034230;28;20047;-82
2023/12/18 06:56:08;;;;;;;27.13;17.33;;;8.30;99.90;;;;;;5026603;28;20045;-83
2023/12/18 06:58:34;;;;;;;29.33;17.13;;;8.30;99.90;;;;;;5049700;28;20045;-84
2023/12/18 07:01:00;;;;;;;26.60;17.60;;;8.20;99.90;;;;;;5031483;28;20049;-84
2023/12/18 07:03:26;;;;;;;38.20;18.83;;;8.20;99.90;;;;;;5034343;28;20046;-85
2023/12/18 07:05:52;;;;;;;29.47;17.57;;;8.20;99.90;;;;;;5033040;28;20053;-83
2023/12/18 07:08:17;;;;;;;33.03;17.57;;;8.20;99.90;;;;;;5025407;28;20092;-81
2023/12/18 07:10:43;;;;;;;30.87;18.13;;;8.20;99.90;;;;;;5055428;28;20121;-82
2023/12/18 07:13:09;;;;;;;29.03;18.03;;;8.20;99.90;;;;;;5041948;28;20060;-81
2023/12/18 07:15:34;;;;;;;30.13;17.70;;;8.20;99.90;;;;;;5045303;28;20109;-80
2023/12/18 07:18:01;;;;;;;29.20;18.37;;;8.10;99.90;;;;;;5034184;28;20092;-80
2023/12/18 07:20:26;;;;;;;29.10;18.23;;;8.10;99.90;;;;;;5036178;28;20062;-81
2023/12/18 07:22:52;;;;;;;32.90;18.90;;;8.10;99.90;;;;;;5050735;28;20966;-81
2023/12/18 07:25:18;;;;;;;32.70;18.30;;;8.10;99.90;;;;;;5004598;28;20049;-81
2023/12/18 07:27:44;;;;;;;33.00;19.07;;;8.10;99.90;;;;;;5027462;28;20045;-80
2023/12/18 07:30:11;;;;;;;31.17;19.43;;;8.10;99.90;;;;;;5037382;28;20079;-80
2023/12/18 07:32:37;;;;;;;31.47;18.90;;;8.10;99.90;;;;;;5042356;28;20127;-80
2023/12/18 07:35:04;;;;;;;28.97;17.50;;;8.10;99.90;;;;;;5028540;28;20041;-80
2023/12/18 07:37:31;;;;;;;32.77;18.23;;;8.10;99.90;;;;;;5023217;28;20053;-79
2023/12/18 07:39:58;;;;;;;30.37;18.17;;;8.10;99.90;;;;;;5031430;28;20045;-79
2023/12/18 07:42:24;;;;;;;32.40;19.50;;;8.10;99.90;;;;;;5041128;28;20049;-80
2023/12/18 07:44:50;;;;;;;36.17;19.20;;;8.10;99.90;;;;;;5038892;28;20049;-80
2023/12/18 07:47:16;;;;;;;32.33;18.70;;;8.10;99.90;;;;;;5031744;28;20060;-80
2023/12/18 07:49:42;;;;;;;30.40;19.13;;;8.10;99.90;;;;;;5032569;28;20043;-80
2023/12/18 07:52:08;;;;;;;32.03;19.77;;;8.10;99.90;;;;;;5020430;28;20041;-80
2023/12/18 07:54:34;;;;;;;31.57;19.37;;;8.10;99.90;;;;;;5023575;28;20053;-80
2023/12/18 07:57:00;;;;;;;36.17;19.27;;;8.10;99.90;;;;;;5019375;28;20056;-80
2023/12/18 07:59:28;;;;;;;30.73;19.73;;;8.10;99.90;;;;;;5039079;28;20048;-77
2023/12/18 08:01:53;;;;;;;30.10;19.37;;;8.10;99.90;;;;;;5006545;28;20213;-82
2023/12/18 08:04:19;;;;;;;37.00;20.33;;;8.10;99.90;;;;;;5000782;28;20076;-81
2023/12/18 08:06:47;;;;;;;34.87;19.87;;;8.10;99.90;;;;;;5034544;28;20823;-80
2023/12/18 08:09:13;;;;;;;35.47;20.23;;;8.10;99.90;;;;;;5016353;28;20548;-80
2023/12/18 08:11:39;;;;;;;32.60;20.23;;;8.10;99.90;;;;;;5001147;28;20055;-80
2023/12/18 08:14:05;;;;;;;33.33;20.77;;;8.10;99.90;;;;;;5019495;28;20072;-77
2023/12/18 08:16:31;;;;;;;31.30;20.67;;;8.10;99.90;;;;;;5034561;28;20064;-78
2023/12/18 08:18:58;;;;;;;37.87;21.67;;;8.10;99.90;;;;;;5005791;28;20043;-76
2023/12/18 08:21:26;;;;;;;35.93;21.17;;;8.10;99.90;;;;;;5030457;28;20838;-76
2023/12/18 08:23:52;;;;;;;31.90;21.60;;;8.10;99.90;;;;;;5037817;28;20626;-76
2023/12/18 08:26:18;;;;;;;39.10;22.03;;;8.20;99.90;;;;;;5006380;28;20514;-76
2023/12/18 08:28:44;;;;;;;34.23;22.07;;;8.20;99.90;;;;;;5031421;28;20041;-75
2023/12/18 08:31:14;;;;;;;32.77;20.40;;;8.20;99.90;;;;;;5039079;28;20048;-76
2023/12/18 08:33:40;;;;;;;36.27;21.40;;;8.20;99.90;;;;;;5024222;28;20110;-76
2023/12/18 08:36:06;;;;;;;36.83;22.23;;;8.20;99.90;;;;;;5036932;28;20049;-80
2023/12/18 08:38:32;;;;;;;36.50;22.13;;;8.20;99.90;;;;;;4996528;28;20041;-79
2023/12/18 08:40:58;;;;;;;30.70;22.17;;;8.20;99.90;;;;;;5020115;28;20051;-79
2023/12/18 08:43:24;;;;;;;38.30;22.47;;;8.20;99.90;;;;;;5033734;28;20155;-79
2023/12/18 08:45:50;;;;;;;36.97;23.33;;;8.20;99.90;;;;;;5023763;28;20072;-80
2023/12/18 08:48:15;;;;;;;33.63;21.93;;;8.20;99.90;;;;;;5035016;28;20059;-79
2023/12/18 08:50:42;;;;;;;33.27;22.33;;;8.20;99.90;;;;;;5023242;28;20045;-80
2023/12/18 08:53:07;;;;;;;38.20;22.03;;;8.30;99.90;;;;;;5018391;28;20495;-79
2023/12/18 08:55:38;;;;;;;34.73;21.57;;;8.30;99.90;;;;;;5014683;28;20045;-79
2023/12/18 08:58:07;;;;;;;36.90;21.47;;;8.30;99.90;;;;;;5019315;28;20674;-79
2023/12/18 09:00:32;;;;;;;35.60;22.10;;;8.30;99.90;;;;;;5020085;28;20536;-79
2023/12/18 09:02:58;;;;;;;34.67;21.73;;;8.30;99.90;;;;;;5039994;28;20041;-79
2023/12/18 09:05:24;;;;;;;39.80;22.30;;;8.30;99.90;;;;;;5036454;28;20554;-78
2023/12/18 09:07:50;;;;;;;36.70;22.70;;;8.30;99.90;;;;;;5021855;28;20041;-78
2023/12/18 09:10:22;;;;;;;35.37;22.20;;;8.30;99.90;;;;;;5031225;28;20061;-82
2023/12/18 09:12:48;;;;;;;39.20;23.15;;;8.30;99.90;;;;;;5034856;28;20696;-80
2023/12/18 09:15:14;;;;;;;35.87;22.63;;;8.30;99.90;;;;;;5033920;28;20042;-79
2023/12/18 09:17:40;;;;;;;33.40;21.63;;;8.30;99.90;;;;;;5030447;28;20075;-81
2023/12/18 09:20:06;;;;;;;35.07;22.87;;;8.30;99.90;;;;;;5039649;28;20037;-80
2023/12/18 09:22:32;;;;;;;36.37;22.80;;;8.30;99.90;;;;;;5019798;28;20048;-78
2023/12/18 09:24:58;;;;;;;36.97;22.97;;;8.30;99.90;;;;;;5034202;28;20045;-83
2023/12/18 09:27:23;;;;;;;33.43;22.37;;;8.30;99.90;;;;;;5017460;28;20076;-80
2023/12/18 09:29:49;;;;;;;35.10;22.53;;;8.30;99.90;;;;;;5034804;28;20140;-80
2023/12/18 09:32:15;;;;;;;40.77;22.93;;;8.30;99.90;;;;;;5004266;28;20037;-79
2023/12/18 09:34:41;;;;;;;34.80;22.40;;;8.30;99.90;;;;;;4986554;28;20129;-77
2023/12/18 09:37:06;;;;;;;35.47;22.33;;;8.30;99.90;;;;;;5005710;28;20041;-82
2023/12/18 09:39:32;;;;;;;37.20;22.90;;;8.30;99.90;;;;;;5020863;28;20261;-83
2023/12/18 09:42:02;;;;;;;33.10;22.27;;;8.30;99.90;;;;;;5005338;28;20033;-82
2023/12/18 09:44:30;;;;;;;34.10;21.70;;;8.30;99.90;;;;;;5022529;28;20704;-83
2023/12/18 09:46:58;;;;;;;36.00;23.17;;;8.40;99.90;;;;;;5005229;28;20052;-83
2023/12/18 09:49:24;;;;;;;37.70;22.63;;;8.30;99.90;;;;;;5037041;28;20065;-83
2023/12/18 09:51:53;;;;;;;31.67;21.23;;;8.40;99.90;;;;;;5009588;28;20171;-82
2023/12/18 09:54:21;;;;;;;37.27;22.03;;;8.40;99.90;;;;;;5041836;28;20060;-81
2023/12/18 09:56:48;;;;;;;36.23;22.10;;;8.40;99.90;;;;;;5039045;28;20059;-82
2023/12/18 09:59:17;;;;;;;35.57;22.30;;;8.40;99.90;;;;;;5020739;28;20048;-80
2023/12/18 10:01:45;;;;;;;36.43;22.53;;;8.40;99.90;;;;;;5008265;28;20040;-81
2023/12/18 10:04:12;;;;;;;37.33;22.87;;;8.40;99.90;;;;;;5021724;28;20056;-82
2023/12/18 10:06:38;;;;;;;35.87;22.40;;;8.40;99.90;;;;;;5026804;28;20049;-81
2023/12/18 10:09:12;;;;;;;36.53;21.93;;;8.50;99.90;;;;;;5022829;28;20048;-81
2023/12/18 10:11:38;;;;;;;41.43;22.73;;;8.50;99.90;;;;;;5040917;28;20102;-82
2023/12/18 10:14:04;;;;;;;38.50;22.30;;;8.50;99.90;;;;;;5039579;28;20080;-81
2023/12/18 10:16:32;;;;;;;32.97;22.63;;;8.50;99.90;;;;;;5023111;28;20045;-81
2023/12/18 10:18:58;;;;;;;39.20;23.83;;;8.50;99.90;;;;;;5017826;28;20048;-81
2023/12/18 10:21:24;;;;;;;38.57;23.00;;;8.50;99.90;;;;;;5034770;28;20044;-81
2023/12/18 10:23:53;;;;;;;36.00;23.93;;;8.50;99.90;;;;;;5006508;28;20103;-79
2023/12/18 10:26:18;;;;;;;36.13;23.03;;;8.50;99.90;;;;;;5036283;28;20045;-79
2023/12/18 10:28:45;;;;;;;39.70;24.00;;;8.50;99.90;;;;;;5007245;28;20511;-79
2023/12/18 10:31:11;;;;;;;39.17;23.50;;;8.60;99.90;;;;;;5034227;28;20548;-80
2023/12/18 10:33:37;;;;;;;36.87;23.23;;;8.60;99.90;;;;;;5020164;28;20041;-80
2023/12/18 10:36:06;;;;;;;36.20;22.60;;;8.60;99.90;;;;;;5009143;28;20065;-79
2023/12/18 10:38:36;;;;;;;38.17;23.17;;;8.60;99.90;;;;;;5020937;28;20423;-80
2023/12/18 10:41:04;;;;;;;37.57;23.33;;;8.60;99.90;;;;;;5026861;28;20049;-80
2023/12/18 10:43:35;;;;;;;39.93;23.87;;;8.60;99.90;;;;;;5019190;28;20041;-80
2023/12/18 10:46:02;;;;;;;36.07;23.27;;;8.60;99.90;;;;;;5041752;28;20037;-82
2023/12/18 10:48:29;;;;;;;38.93;23.73;;;8.60;99.90;;;;;;5037969;28;20048;-80
2023/12/18 10:50:59;;;;;;;32.50;22.17;;;8.60;99.90;;;;;;5016780;28;20493;-82
2023/12/18 10:53:26;;;;;;;39.90;23.97;;;8.70;99.90;;;;;;5022163;28;20818;-84
2023/12/18 10:55:54;;;;;;;38.30;23.63;;;8.70;99.90;;;;;;5021372;28;20431;-85
2023/12/18 10:58:20;;;;;;;38.03;23.33;;;8.70;99.90;;;;;;5022537;28;20045;-86
2023/12/18 11:00:46;;;;;;;38.90;23.07;;;8.70;99.90;;;;;;5004240;28;20044;-82
2023/12/18 11:03:13;;;;;;;41.33;23.60;;;8.70;99.90;;;;;;5023031;28;20087;-82
2023/12/18 11:05:41;;;;;;;38.37;23.27;;;8.80;99.90;;;;;;5003138;28;20393;-81
2023/12/18 11:08:07;;;;;;;39.00;23.80;;;8.80;99.90;;;;;;5038509;28;20044;-80
2023/12/18 11:10:33;;;;;;;36.57;23.50;;;8.80;99.90;;;;;;5035341;28;20053;-81
2023/12/18 11:13:27;;;;;;;35.53;23.57;;;8.80;99.90;;;;;;5018917;28;20057;-82
2023/12/18 11:16:31;;;;;;;36.73;24.03;;;8.80;99.90;;;;;;5024738;28;20076;-82
2023/12/18 11:19:11;;;;;;;39.97;25.30;;;8.80;99.90;;;;;;5013672;28;20602;-82
2023/12/18 11:21:39;;;;;;;37.97;24.00;;;8.80;99.90;;;;;;5017642;28;20554;-82
2023/12/18 11:24:06;;;;;;;39.47;24.57;;;8.80;99.90;;;;;;5033227;28;20049;-83
2023/12/18 11:26:35;;;;;;;46.87;25.93;;;8.80;99.90;;;;;;5002462;28;20056;-81
2023/12/18 11:29:43;;;;;;;40.97;25.87;;;8.80;99.90;;;;;;5032868;28;20057;-83
2023/12/18 11:32:45;;;;;;;40.47;24.83;;;8.80;99.90;;;;;;5019176;28;20052;-82
2023/12/18 11:35:12;;;;;;;40.38;24.08;;;8.80;99.90;;;;;;5032616;28;20059;-83
2023/12/18 11:37:44;;;;;;;38.03;23.70;;;8.80;99.90;;;;;;5010487;28;20056;-81
2023/12/18 11:40:29;;;;;;;40.10;25.33;;;8.80;99.90;;;;;;5018394;28;20058;-83
2023/12/18 11:42:55;;;;;;;39.33;24.37;;;8.80;99.90;;;;;;5037398;28;20455;-82
2023/12/18 11:45:24;;;;;;;41.93;25.10;;;8.90;99.90;;;;;;5025401;28;20037;-82
2023/12/18 11:47:56;;;;;;;38.67;24.17;;;8.80;99.90;;;;;;5020729;28;20045;-79
2023/12/18 11:50:26;;;;;;;49.08;25.15;;;8.80;99.90;;;;;;5023061;28;20045;-82
2023/12/18 11:52:56;;;;;;;39.50;24.33;;;8.90;99.90;;;;;;5009511;28;20065;-81
2023/12/18 11:55:39;;;;;;;35.43;23.50;;;8.90;99.90;;;;;;5037690;28;20045;-82
2023/12/18 11:58:09;;;;;;;43.27;25.23;;;8.90;99.90;;;;;;5043994;28;20045;-83
2023/12/18 12:00:38;;;;;;;41.13;25.27;;;8.90;99.90;;;;;;5007004;28;20526;-82
2023/12/18 12:03:04;;;;;;;39.13;24.03;;;8.90;99.90;;;;;;5025461;28;20036;-82
2023/12/18 12:05:31;;;;;;;46.27;24.47;;;8.90;99.90;;;;;;5007354;28;20046;-79
2023/12/18 12:07:58;;;;;;;41.03;24.20;;;8.90;99.90;;;;;;5027747;28;20053;-82
2023/12/18 12:10:24;;;;;;;40.73;24.40;;;8.90;99.90;;;;;;5007669;28;20895;-82
2023/12/18 12:12:57;;;;;;;37.67;23.60;;;8.90;99.90;;;;;;5043596;28;20049;-83
2023/12/18 12:15:24;;;;;;;37.53;24.33;;;8.90;99.90;;;;;;5014503;28;20052;-82
2023/12/18 12:18:10;;;;;;;33.30;23.30;;;8.90;99.90;;;;;;5025554;28;20045;-83
2023/12/18 12:20:36;;;;;;;35.40;24.37;;;8.90;99.90;;;;;;5028804;28;20452;-82
2023/12/18 12:23:01;;;;;;;36.37;23.83;;;8.90;99.90;;;;;;5020831;28;20055;-81
2023/12/18 12:25:27;;;;;;;40.60;23.37;;;8.90;99.90;;;;;;5008301;28;20124;-82
2023/12/18 12:27:53;;;;;;;35.23;23.07;;;8.90;99.90;;;;;;5029432;28;20439;-83
2023/12/18 12:30:18;;;;;;;37.47;21.50;;;8.90;99.90;;;;;;5012772;28;20064;-82
2023/12/18 12:32:47;;;;;;;40.23;22.47;;;9.00;99.90;;;;;;5002078;28;20052;-82
2023/12/18 12:35:16;;;;;;;36.57;21.77;;;9.00;99.90;;;;;;5025742;28;20048;-82